createdAt,value
2017-07-11T00:02:03.894Z,22.10
2017-07-11T00:04:32.872Z,22.85
2017-07-11T00:07:01.049Z,21.75
2017-07-11T00:09:29.229Z,20.98
2017-07-11T00:11:57.443Z,22.60
2017-07-11T00:14:25.632Z,22.27
2017-07-11T00:16:53.811Z,22.55
2017-07-11T00:19:22.019Z,24.15
2017-07-11T00:21:50.192Z,24.83
2017-07-11T00:24:18.371Z,24.35
2017-07-11T00:26:46.585Z,24.25
2017-07-11T00:29:14.761Z,26.08
2017-07-11T00:31:42.941Z,24.85
2017-07-11T00:34:11.146Z,23.95
2017-07-11T00:36:39.315Z,27.75
2017-07-11T00:39:07.479Z,25.75
2017-07-11T00:41:35.666Z,24.45
2017-07-11T00:44:03.862Z,25.55
2017-07-11T00:46:32.037Z,24.98
2017-07-11T00:49:00.214Z,26.55
2017-07-11T00:51:28.373Z,27.30
2017-07-11T00:53:56.548Z,24.33
2017-07-11T00:56:24.753Z,25.70
2017-07-11T00:58:52.910Z,25.37
2017-07-11T01:01:21.082Z,23.48
2017-07-11T01:03:49.271Z,22.92
2017-07-11T01:06:17.422Z,25.73
2017-07-11T01:08:45.583Z,29.25
2017-07-11T01:11:13.760Z,26.17
2017-07-11T01:13:41.944Z,28.40
2017-07-11T01:16:10.101Z,29.92
2017-07-11T01:18:38.302Z,29.20
2017-07-11T01:21:06.484Z,28.02
2017-07-11T01:23:34.661Z,29.30
2017-07-11T01:26:02.862Z,27.50
2017-07-11T01:28:31.019Z,28.83
2017-07-11T01:30:59.963Z,25.88
2017-07-11T01:33:28.473Z,25.55
2017-07-11T01:35:56.654Z,25.37
2017-07-11T01:38:24.804Z,23.27
2017-07-11T01:40:52.978Z,25.30
2017-07-11T01:43:21.754Z,24.58
2017-07-11T01:45:49.945Z,25.02
2017-07-11T01:48:18.150Z,23.75
2017-07-11T01:50:46.333Z,23.42
2017-07-11T01:53:14.491Z,22.37
2017-07-11T01:55:42.678Z,21.70
2017-07-11T01:58:10.853Z,21.98
2017-07-11T02:00:39.027Z,19.90
2017-07-11T02:03:07.223Z,17.52
2017-07-11T02:05:36.164Z,18.35
2017-07-11T02:08:04.344Z,21.08
2017-07-11T02:10:32.542Z,19.52
2017-07-11T02:13:00.709Z,19.23
2017-07-11T02:15:28.880Z,20.92
2017-07-11T02:17:57.072Z,20.67
2017-07-11T02:20:25.232Z,20.95
2017-07-11T02:22:53.390Z,20.35
2017-07-11T02:25:21.585Z,20.35
2017-07-11T02:27:49.758Z,20.65
2017-07-11T02:30:17.927Z,20.00
2017-07-11T02:32:46.110Z,19.35
2017-07-11T02:35:14.286Z,21.42
2017-07-11T02:37:42.464Z,21.52
2017-07-11T02:40:10.654Z,20.17
2017-07-11T02:42:39.601Z,20.67
2017-07-11T02:45:07.746Z,21.12
2017-07-11T02:47:35.931Z,20.58
2017-07-11T02:50:04.108Z,22.10
2017-07-11T02:52:32.280Z,24.40
2017-07-11T02:55:00.483Z,23.60
2017-07-11T02:57:28.642Z,23.33
2017-07-11T02:59:56.821Z,22.42
2017-07-11T03:02:25.008Z,24.20
2017-07-11T03:04:53.187Z,23.87
2017-07-11T03:07:21.339Z,25.42
2017-07-11T03:09:49.573Z,24.40
2017-07-11T03:12:18.506Z,25.35
2017-07-11T03:14:46.686Z,25.40
2017-07-11T03:17:14.884Z,24.30
2017-07-11T03:19:43.039Z,28.62
2017-07-11T03:22:11.217Z,28.05
2017-07-11T03:24:39.422Z,29.05
2017-07-11T03:27:07.601Z,30.98
2017-07-11T03:29:36.532Z,32.28
2017-07-11T03:32:04.732Z,31.52
2017-07-11T03:34:32.903Z,32.65
2017-07-11T03:37:01.077Z,32.17
2017-07-11T03:39:29.262Z,29.70
2017-07-11T03:41:57.410Z,34.00
2017-07-11T03:44:25.582Z,32.30
2017-07-11T03:46:53.793Z,30.12
2017-07-11T03:49:21.965Z,33.47
2017-07-11T03:51:50.144Z,30.92
2017-07-11T03:54:18.327Z,31.23
2017-07-11T03:56:46.501Z,33.00
2017-07-11T03:59:14.681Z,30.98
2017-07-11T04:01:42.885Z,31.17
2017-07-11T04:04:11.083Z,31.70
2017-07-11T04:06:39.266Z,29.42
2017-07-11T04:09:07.453Z,30.40
2017-07-11T04:11:35.634Z,32.38
2017-07-11T04:14:03.804Z,30.33
2017-07-11T04:16:31.998Z,29.17
2017-07-11T04:19:00.157Z,31.48
2017-07-11T04:21:28.326Z,31.23
2017-07-11T04:23:56.537Z,29.85
2017-07-11T04:26:24.708Z,31.65
2017-07-11T04:28:52.869Z,30.62
2017-07-11T04:31:21.069Z,30.98
2017-07-11T04:33:49.234Z,35.65
2017-07-11T04:36:17.407Z,32.53
2017-07-11T04:38:45.594Z,30.90
2017-07-11T04:41:13.765Z,29.20
2017-07-11T04:43:41.918Z,28.75
2017-07-11T04:46:10.119Z,31.52
2017-07-11T04:48:38.283Z,32.72
2017-07-11T04:51:06.454Z,31.83
2017-07-11T04:53:34.669Z,31.80
2017-07-11T04:56:03.606Z,32.15
2017-07-11T04:58:31.776Z,33.25
2017-07-11T05:00:59.976Z,34.53
2017-07-11T05:03:28.130Z,34.17
2017-07-11T05:05:56.293Z,35.17
2017-07-11T05:08:24.497Z,35.00
2017-07-11T05:10:52.651Z,34.92
2017-07-11T05:13:20.825Z,33.63
2017-07-11T05:15:49.039Z,34.08
2017-07-11T05:18:17.212Z,33.05
2017-07-11T05:20:45.385Z,32.90
2017-07-11T05:23:13.561Z,33.45
2017-07-11T05:25:41.736Z,32.75
2017-07-11T05:28:09.913Z,39.55
2017-07-11T05:30:38.107Z,36.67
2017-07-11T05:33:06.268Z,31.80
2017-07-11T05:35:35.200Z,32.83
2017-07-11T05:38:03.407Z,31.80
2017-07-11T05:40:31.590Z,33.22
2017-07-11T05:42:59.747Z,32.65
2017-07-11T05:45:27.950Z,32.53
2017-07-11T05:47:56.094Z,31.87
2017-07-11T05:50:24.306Z,32.95
2017-07-11T05:52:52.469Z,31.35
2017-07-11T05:55:20.645Z,31.20
2017-07-11T05:57:49.663Z,31.70
2017-07-11T06:00:18.646Z,32.17
2017-07-11T06:02:46.814Z,32.95
2017-07-11T06:05:14.989Z,30.55
2017-07-11T06:07:43.499Z,30.83
2017-07-11T06:10:12.428Z,29.52
2017-07-11T06:12:40.605Z,29.65
2017-07-11T06:15:08.791Z,27.00
2017-07-11T06:17:36.967Z,28.67
2017-07-11T06:20:05.892Z,28.33
2017-07-11T06:22:34.084Z,28.52
2017-07-11T06:25:02.253Z,28.58
2017-07-11T06:27:30.426Z,28.17
2017-07-11T06:29:58.606Z,29.33
2017-07-11T06:32:26.777Z,29.27
2017-07-11T06:34:54.934Z,29.10
2017-07-11T06:37:23.165Z,29.90
2017-07-11T06:39:51.342Z,28.30
2017-07-11T06:42:19.494Z,29.75
2017-07-11T06:44:47.703Z,31.60
2017-07-11T06:47:16.624Z,31.50
2017-07-11T06:49:44.801Z,32.10
2017-07-11T06:52:12.988Z,30.45
2017-07-11T06:54:41.148Z,31.00
2017-07-11T06:57:09.321Z,31.77
2017-07-11T06:59:37.519Z,30.35
2017-07-11T07:02:05.698Z,33.13
2017-07-11T07:04:33.872Z,32.80
2017-07-11T07:07:02.069Z,32.28
2017-07-11T07:09:30.247Z,31.40
2017-07-11T07:11:58.425Z,33.72
2017-07-11T07:14:26.606Z,31.85
2017-07-11T07:16:54.782Z,31.33
2017-07-11T07:19:22.980Z,31.92
2017-07-11T07:21:51.946Z,31.90
2017-07-11T07:24:20.107Z,28.75
2017-07-11T07:26:48.321Z,28.30
2017-07-11T07:29:17.275Z,29.70
2017-07-11T07:31:45.435Z,28.25
2017-07-11T07:34:13.609Z,26.30
2017-07-11T07:36:41.809Z,25.92
2017-07-11T07:39:09.963Z,26.40
2017-07-11T07:41:38.138Z,28.50
2017-07-11T07:44:06.332Z,25.62
2017-07-11T07:46:34.501Z,27.83
2017-07-11T07:49:02.659Z,28.62
2017-07-11T07:51:30.837Z,27.10
2017-07-11T07:53:58.986Z,26.55
2017-07-11T07:56:27.149Z,28.12
2017-07-11T07:58:55.336Z,27.37
2017-07-11T08:01:23.507Z,27.17
2017-07-11T08:03:51.655Z,27.95
2017-07-11T08:06:20.602Z,29.67
2017-07-11T08:08:48.777Z,27.08
2017-07-11T08:11:16.934Z,25.20
2017-07-11T08:13:45.134Z,24.02
2017-07-11T08:16:13.311Z,26.15
2017-07-11T08:18:41.468Z,24.48
2017-07-11T08:21:09.652Z,23.77
2017-07-11T08:23:37.829Z,22.30
2017-07-11T08:26:05.987Z,21.52
2017-07-11T08:28:34.180Z,21.00
2017-07-11T08:31:02.378Z,19.98
2017-07-11T08:33:30.532Z,16.77
2017-07-11T08:35:58.752Z,16.20
2017-07-11T08:38:26.922Z,15.57
2017-07-11T08:40:55.105Z,15.93
2017-07-11T08:43:23.301Z,13.40
2017-07-11T08:45:51.477Z,13.83
2017-07-11T08:48:19.649Z,15.20
2017-07-11T08:50:48.196Z,14.40
2017-07-11T08:53:16.381Z,16.20
2017-07-11T08:55:44.563Z,14.70
2017-07-11T08:58:12.769Z,16.40
2017-07-11T09:00:40.950Z,15.88
2017-07-11T09:03:09.106Z,16.42
2017-07-11T09:05:37.295Z,18.25
2017-07-11T09:08:05.469Z,17.02
2017-07-11T09:10:33.637Z,18.20
2017-07-11T09:13:01.842Z,21.35
2017-07-11T09:15:30.002Z,19.77
2017-07-11T09:17:58.183Z,18.77
2017-07-11T09:20:26.368Z,18.65
2017-07-11T09:22:54.544Z,17.73
2017-07-11T09:25:22.703Z,18.52
2017-07-11T09:27:50.912Z,16.83
2017-07-11T09:30:19.839Z,16.35
2017-07-11T09:32:48.022Z,16.02
2017-07-11T09:35:16.208Z,13.30
2017-07-11T09:37:44.361Z,14.90
2017-07-11T09:40:12.536Z,15.40
2017-07-11T09:42:40.723Z,15.87
2017-07-11T09:45:08.878Z,16.90
2017-07-11T09:47:37.056Z,16.53
2017-07-11T09:50:05.273Z,16.50
2017-07-11T09:52:33.454Z,16.57
2017-07-11T09:55:01.628Z,16.47
2017-07-11T09:57:29.818Z,17.48
2017-07-11T09:59:58.747Z,15.82
2017-07-11T10:02:26.928Z,16.08
2017-07-11T10:04:55.137Z,16.70
2017-07-11T10:07:23.322Z,16.62
2017-07-11T10:09:51.501Z,15.88
2017-07-11T10:12:19.704Z,14.57
2017-07-11T10:14:47.859Z,13.43
2017-07-11T10:17:16.013Z,14.30
2017-07-11T10:19:44.195Z,13.50
2017-07-11T10:22:12.366Z,14.60
2017-07-11T10:24:40.549Z,12.03
2017-07-11T10:27:08.757Z,12.40
2017-07-11T10:29:36.936Z,12.37
2017-07-11T10:32:05.122Z,12.20
2017-07-11T10:34:33.325Z,12.40
2017-07-11T10:37:01.502Z,12.60
2017-07-11T10:39:29.657Z,11.17
2017-07-11T10:41:57.848Z,11.70
2017-07-11T10:44:25.998Z,11.00
2017-07-11T10:46:54.174Z,12.50
2017-07-11T10:49:22.380Z,11.43
2017-07-11T10:51:50.529Z,11.90
2017-07-11T10:54:18.690Z,13.00
2017-07-11T10:56:46.879Z,12.60
2017-07-11T10:59:15.034Z,14.30
2017-07-11T11:01:43.196Z,16.07
2017-07-11T11:04:12.184Z,22.75
2017-07-11T11:06:41.115Z,23.30
2017-07-11T11:09:09.275Z,23.95
2017-07-11T11:11:37.464Z,21.08
2017-07-11T11:14:05.638Z,22.48
2017-07-11T11:16:33.820Z,18.98
2017-07-11T11:19:02.028Z,21.42
2017-07-11T11:21:30.200Z,24.55
2017-07-11T11:23:58.392Z,24.75
2017-07-11T11:26:26.597Z,21.33
2017-07-11T11:28:54.761Z,22.65
2017-07-11T11:31:23.701Z,21.62
2017-07-11T11:33:51.909Z,19.73
2017-07-11T11:36:20.147Z,18.20
2017-07-11T11:38:48.351Z,18.60
2017-07-11T11:41:16.920Z,19.40
2017-07-11T11:43:45.080Z,19.52
2017-07-11T11:46:13.242Z,19.70
2017-07-11T11:48:41.447Z,20.60
2017-07-11T11:51:09.603Z,19.58
2017-07-11T11:53:37.774Z,20.70
2017-07-11T11:56:05.977Z,21.50
2017-07-11T11:58:34.132Z,25.05
2017-07-11T12:01:02.308Z,26.67
2017-07-11T12:03:30.513Z,13.38
2017-07-11T12:05:58.681Z,12.43
2017-07-11T12:08:26.865Z,21.80
2017-07-11T12:10:55.073Z,23.67
2017-07-11T12:13:23.255Z,31.73
2017-07-11T12:15:51.435Z,32.72
2017-07-11T12:18:19.626Z,35.60
2017-07-11T12:20:47.779Z,37.60
2017-07-11T12:23:15.938Z,52.33
2017-07-11T12:25:44.886Z,42.53
2017-07-11T12:28:13.058Z,36.80
2017-07-11T12:30:41.216Z,36.00
2017-07-11T12:33:09.411Z,30.85
2017-07-11T12:35:37.574Z,31.25
2017-07-11T12:38:05.753Z,28.77
2017-07-11T12:40:33.957Z,29.80
2017-07-11T12:43:02.137Z,29.87
2017-07-11T12:45:30.314Z,28.15
2017-07-11T12:47:58.502Z,27.85
2017-07-11T12:50:27.453Z,25.80
2017-07-11T12:52:55.615Z,24.00
2017-07-11T12:55:23.810Z,25.23
2017-07-11T12:57:51.976Z,24.27
2017-07-11T13:00:20.156Z,23.25
2017-07-11T13:02:48.362Z,22.70
2017-07-11T13:05:17.306Z,25.58
2017-07-11T13:07:45.478Z,25.33
2017-07-11T13:10:13.680Z,24.73
2017-07-11T13:12:41.859Z,23.65
2017-07-11T13:15:10.012Z,14.02
2017-07-11T13:17:38.206Z,12.25
2017-07-11T13:20:06.367Z,9.30
2017-07-11T13:22:34.544Z,9.48
2017-07-11T13:25:02.724Z,7.62
2017-07-11T13:27:30.870Z,8.60
2017-07-11T13:29:59.033Z,8.23
2017-07-11T13:32:27.237Z,8.52
2017-07-11T13:34:55.394Z,7.37
2017-07-11T13:37:23.560Z,8.77
2017-07-11T13:39:51.754Z,9.23
2017-07-11T13:42:19.925Z,9.60
2017-07-11T13:44:48.114Z,8.68
2017-07-11T13:47:16.322Z,9.63
2017-07-11T13:49:45.247Z,10.73
2017-07-11T13:52:13.445Z,9.65
2017-07-11T13:54:41.669Z,10.77
2017-07-11T13:57:10.595Z,10.35
2017-07-11T13:59:38.749Z,12.37
2017-07-11T14:02:07.695Z,9.75
2017-07-11T14:04:35.849Z,9.93
2017-07-11T14:07:04.021Z,9.75
2017-07-11T14:09:32.221Z,10.30
2017-07-11T14:12:00.379Z,11.68
2017-07-11T14:14:28.578Z,11.40
2017-07-11T14:16:56.763Z,12.68
2017-07-11T14:19:24.941Z,11.75
2017-07-11T14:21:53.098Z,11.48
2017-07-11T14:24:22.069Z,11.30
2017-07-11T14:26:50.249Z,11.45
2017-07-11T14:29:18.429Z,11.38
2017-07-11T14:31:46.616Z,10.40
2017-07-11T14:34:14.787Z,11.55
2017-07-11T14:36:42.962Z,11.32
2017-07-11T14:39:11.148Z,11.25
2017-07-11T14:41:39.306Z,12.90
2017-07-11T14:44:07.454Z,10.02
2017-07-11T14:46:35.639Z,11.23
2017-07-11T14:49:03.791Z,11.60
2017-07-11T14:51:31.962Z,11.98
2017-07-11T14:54:00.163Z,9.30
2017-07-11T14:56:28.315Z,11.27
2017-07-11T14:58:56.481Z,8.23
2017-07-11T15:01:24.667Z,9.30
2017-07-11T15:03:52.832Z,9.10
2017-07-11T15:06:20.980Z,9.35
2017-07-11T15:08:49.924Z,9.55
2017-07-11T15:11:18.079Z,7.68
2017-07-11T15:13:46.227Z,7.95
2017-07-11T15:16:15.181Z,7.80
2017-07-11T15:18:43.326Z,6.30
2017-07-11T15:21:11.472Z,6.75
2017-07-11T15:23:39.665Z,7.20
2017-07-11T15:26:07.814Z,7.05
2017-07-11T15:28:35.966Z,6.62
2017-07-11T15:31:04.142Z,6.93
2017-07-11T15:33:32.291Z,7.28
2017-07-11T15:36:00.460Z,7.82
2017-07-11T15:38:28.654Z,6.70
2017-07-11T15:40:56.802Z,6.85
2017-07-11T15:43:24.971Z,7.70
2017-07-11T15:45:53.170Z,8.25
2017-07-11T15:48:21.319Z,7.68
2017-07-11T15:50:49.484Z,7.75
2017-07-11T15:53:18.435Z,7.20
2017-07-11T15:55:46.583Z,6.65
2017-07-11T15:58:14.757Z,5.57
2017-07-11T16:00:42.941Z,5.65
2017-07-11T16:03:11.094Z,5.80
2017-07-11T16:05:39.253Z,5.90
2017-07-11T16:08:08.225Z,6.20
2017-07-11T16:10:36.374Z,11.90
2017-07-11T16:13:04.542Z,8.55
2017-07-11T16:15:32.715Z,7.45
2017-07-11T16:18:00.881Z,7.65
2017-07-11T16:20:29.042Z,11.77
2017-07-11T16:22:58.569Z,12.43
2017-07-11T16:25:26.742Z,7.45
2017-07-11T16:27:54.891Z,8.98
2017-07-11T16:30:23.062Z,8.70
2017-07-11T16:32:51.228Z,7.40
2017-07-11T16:35:19.397Z,8.27
2017-07-11T16:37:48.465Z,8.65
2017-07-11T16:40:16.637Z,9.40
2017-07-11T16:42:44.827Z,9.80
2017-07-11T16:45:13.797Z,15.15
2017-07-11T16:47:41.958Z,8.48
2017-07-11T16:50:10.137Z,8.13
2017-07-11T16:52:38.323Z,7.12
2017-07-11T16:55:06.498Z,7.20
2017-07-11T16:57:34.673Z,6.07
2017-07-11T17:00:02.852Z,5.47
2017-07-11T17:02:31.014Z,7.32
2017-07-11T17:04:59.933Z,8.73
2017-07-11T17:07:28.157Z,9.85
2017-07-11T17:09:56.323Z,10.25
2017-07-11T17:12:24.502Z,9.63
2017-07-11T17:14:52.686Z,9.07
2017-07-11T17:17:20.845Z,9.77
2017-07-11T17:19:49.007Z,9.70
2017-07-11T17:22:17.189Z,9.50
2017-07-11T17:24:45.338Z,8.68
2017-07-11T17:27:13.494Z,7.90
2017-07-11T17:29:41.686Z,8.60
2017-07-11T17:32:09.858Z,9.00
2017-07-11T17:34:38.016Z,9.15
2017-07-11T17:37:06.634Z,8.88
2017-07-11T17:39:34.805Z,8.32
2017-07-11T17:42:02.985Z,9.65
2017-07-11T17:44:31.193Z,11.25
2017-07-11T17:46:59.350Z,10.35
2017-07-11T17:49:27.520Z,10.25
2017-07-11T17:51:55.717Z,11.02
2017-07-11T17:54:24.667Z,13.52
2017-07-11T17:56:52.833Z,14.20
2017-07-11T17:59:21.053Z,13.35
2017-07-11T18:01:49.234Z,16.58
2017-07-11T18:04:17.388Z,19.00
2017-07-11T18:06:45.605Z,18.55
2017-07-11T18:09:13.761Z,13.88
2017-07-11T18:11:42.687Z,17.40
2017-07-11T18:14:10.888Z,14.68
2017-07-11T18:16:39.067Z,15.57
2017-07-11T18:19:07.248Z,19.87
2017-07-11T18:21:35.427Z,28.50
2017-07-11T18:24:03.592Z,20.90
2017-07-11T18:26:31.751Z,15.10
2017-07-11T18:28:59.938Z,18.25
2017-07-11T18:31:28.114Z,15.15
2017-07-11T18:33:56.296Z,19.95
2017-07-11T18:36:24.485Z,23.73
2017-07-11T18:38:52.647Z,16.17
2017-07-11T18:41:20.810Z,21.05
2017-07-11T18:43:49.025Z,29.65
2017-07-11T18:46:17.973Z,15.85
2017-07-11T18:48:46.139Z,12.95
2017-07-11T18:51:14.349Z,13.80
2017-07-11T18:53:42.529Z,12.90
2017-07-11T18:56:10.712Z,10.48
2017-07-11T18:58:38.931Z,10.10
2017-07-11T19:01:07.094Z,8.48
2017-07-11T19:03:35.252Z,9.52
2017-07-11T19:06:04.210Z,8.20
2017-07-11T19:08:32.373Z,9.10
2017-07-11T19:11:00.529Z,9.38
2017-07-11T19:13:28.739Z,15.43
2017-07-11T19:15:56.915Z,9.30
2017-07-11T19:18:25.100Z,11.12
2017-07-11T19:20:53.309Z,11.25
2017-07-11T19:23:22.242Z,9.50
2017-07-11T19:25:50.401Z,11.90
2017-07-11T19:28:18.618Z,9.38
2017-07-11T19:30:46.810Z,11.77
2017-07-11T19:33:15.048Z,10.88
2017-07-11T19:35:43.235Z,8.27
2017-07-11T19:38:11.409Z,7.37
2017-07-11T19:40:39.565Z,7.18
2017-07-11T19:43:07.772Z,11.35
2017-07-11T19:45:35.935Z,11.63
2017-07-11T19:48:04.874Z,7.40
2017-07-11T19:50:33.077Z,7.75
2017-07-11T19:53:01.255Z,7.70
2017-07-11T19:55:29.429Z,7.00
2017-07-11T19:57:57.624Z,7.65
2017-07-11T20:00:26.565Z,6.75
2017-07-11T20:02:54.883Z,7.43
2017-07-11T20:05:23.079Z,7.18
2017-07-11T20:07:52.011Z,8.63
2017-07-11T20:10:20.172Z,8.40
2017-07-11T20:12:48.387Z,6.32
2017-07-11T20:15:16.561Z,6.53
2017-07-11T20:17:44.715Z,9.85
2017-07-11T20:20:12.942Z,11.90
2017-07-11T20:22:41.865Z,24.70
2017-07-11T20:25:10.023Z,16.73
2017-07-11T20:27:38.235Z,14.40
2017-07-11T20:30:06.394Z,17.40
2017-07-11T20:32:34.563Z,14.35
2017-07-11T20:35:02.778Z,11.65
2017-07-11T20:37:30.956Z,8.75
2017-07-11T20:39:59.119Z,10.55
2017-07-11T20:42:27.300Z,12.95
2017-07-11T20:44:55.485Z,12.85
2017-07-11T20:47:23.646Z,13.13
2017-07-11T20:49:51.825Z,11.80
2017-07-11T20:52:20.012Z,11.20
2017-07-11T20:54:48.176Z,7.80
2017-07-11T20:57:16.356Z,9.02
2017-07-11T20:59:44.530Z,6.40
2017-07-11T21:02:12.691Z,6.30
2017-07-11T21:04:40.881Z,7.35
2017-07-11T21:07:09.036Z,7.60
2017-07-11T21:09:37.202Z,7.22
2017-07-11T21:12:05.415Z,8.73
2017-07-11T21:14:33.579Z,11.50
2017-07-11T21:17:01.753Z,9.18
2017-07-11T21:19:29.964Z,13.98
2017-07-11T21:21:58.882Z,15.45
2017-07-11T21:24:27.134Z,14.98
2017-07-11T21:26:55.374Z,10.15
2017-07-11T21:29:23.547Z,9.52
2017-07-11T21:31:51.704Z,9.10
2017-07-11T21:34:19.911Z,10.25
2017-07-11T21:36:48.843Z,10.63
2017-07-11T21:39:17.030Z,8.80
2017-07-11T21:41:45.208Z,9.00
2017-07-11T21:44:13.402Z,8.35
2017-07-11T21:46:41.571Z,9.35
2017-07-11T21:49:09.774Z,8.52
2017-07-11T21:51:37.924Z,7.18
2017-07-11T21:54:06.084Z,6.97
2017-07-11T21:56:34.272Z,6.70
2017-07-11T21:59:02.420Z,6.95
2017-07-11T22:01:30.578Z,7.00
2017-07-11T22:03:59.303Z,7.60
2017-07-11T22:06:27.473Z,6.85
2017-07-11T22:08:55.644Z,7.25
2017-07-11T22:11:23.823Z,9.20
2017-07-11T22:13:52.174Z,8.50
2017-07-11T22:16:20.341Z,9.00
2017-07-11T22:18:48.556Z,9.77
2017-07-11T22:21:16.769Z,10.60
2017-07-11T22:23:45.716Z,9.60
2017-07-11T22:26:13.925Z,10.43
2017-07-11T22:28:42.112Z,10.30
2017-07-11T22:31:11.903Z,11.98
2017-07-11T22:33:40.110Z,12.30
2017-07-11T22:36:08.287Z,10.05
2017-07-11T22:38:36.450Z,10.40
2017-07-11T22:41:04.639Z,10.00
2017-07-11T22:43:32.809Z,9.57
2017-07-11T22:46:00.976Z,8.90
2017-07-11T22:48:29.163Z,10.60
2017-07-11T22:50:57.316Z,9.55
2017-07-11T22:53:26.395Z,7.80
2017-07-11T22:55:54.595Z,9.20
2017-07-11T22:58:23.534Z,8.43
2017-07-11T23:00:51.718Z,9.25
2017-07-11T23:03:19.905Z,8.65
2017-07-11T23:05:48.832Z,11.25
2017-07-11T23:08:16.991Z,8.48
2017-07-11T23:10:45.193Z,8.60
2017-07-11T23:13:13.358Z,11.98
2017-07-11T23:15:41.535Z,10.90
2017-07-11T23:18:09.723Z,8.90
2017-07-11T23:20:37.916Z,9.13
2017-07-11T23:23:06.093Z,9.57
2017-07-11T23:25:34.290Z,8.68
2017-07-11T23:28:03.214Z,8.98
2017-07-11T23:30:31.374Z,8.77
2017-07-11T23:32:59.558Z,7.55
2017-07-11T23:35:27.710Z,7.95
2017-07-11T23:37:55.863Z,7.70
2017-07-11T23:40:24.061Z,6.72
2017-07-11T23:42:53.000Z,8.25
2017-07-11T23:45:21.173Z,7.60
2017-07-11T23:47:49.372Z,9.35
2017-07-11T23:50:17.546Z,8.57
2017-07-11T23:52:45.698Z,8.20
2017-07-11T23:55:13.898Z,8.13
2017-07-11T23:57:42.046Z,8.60
